sensor_id;sensor_type;location;lat;lon;timestamp;pressure;altitude;pressure_sealevel;temperature;humidity
58018;BME280;43810;50.860;19.226;2022-12-18T00:01:16;100038.66;;;-4.09;84.35
58018;BME280;43810;50.860;19.226;2022-12-18T00:03:43;100056.81;;;-4.09;84.17
58018;BME280;43810;50.860;19.226;2022-12-18T00:06:09;100054.00;;;-4.14;84.20
58018;BME280;43810;50.860;19.226;2022-12-18T00:08:35;100059.00;;;-4.19;84.34
58018;BME280;43810;50.860;19.226;2022-12-18T00:11:05;100071.75;;;-4.24;84.44
58018;BME280;43810;50.860;19.226;2022-12-18T00:13:32;100070.72;;;-4.30;84.51
58018;BME280;43810;50.860;19.226;2022-12-18T00:16:02;100070.16;;;-4.25;84.82
58018;BME280;43810;50.860;19.226;2022-12-18T00:18:28;100086.94;;;-4.21;84.45
58018;BME280;43810;50.860;19.226;2022-12-18T00:20:58;100091.34;;;-4.22;84.19
58018;BME280;43810;50.860;19.226;2022-12-18T00:23:24;100085.34;;;-4.22;84.35
58018;BME280;43810;50.860;19.226;2022-12-18T00:25:50;100085.53;;;-4.17;84.35
58018;BME280;43810;50.860;19.226;2022-12-18T00:28:16;100088.34;;;-4.12;84.12
58018;BME280;43810;50.860;19.226;2022-12-18T00:30:41;100095.75;;;-4.09;84.21
58018;BME280;43810;50.860;19.226;2022-12-18T00:33:07;100092.38;;;-4.03;84.01
58018;BME280;43810;50.860;19.226;2022-12-18T00:35:33;100094.16;;;-4.03;84.13
58018;BME280;43810;50.860;19.226;2022-12-18T00:37:59;100091.75;;;-4.05;84.20
58018;BME280;43810;50.860;19.226;2022-12-18T00:40:24;100087.19;;;-4.03;83.98
58018;BME280;43810;50.860;19.226;2022-12-18T00:42:50;100100.72;;;-4.07;84.09
58018;BME280;43810;50.860;19.226;2022-12-18T00:45:27;100108.13;;;-4.11;84.07
58018;BME280;43810;50.860;19.226;2022-12-18T00:47:54;100103.31;;;-4.14;84.26
58018;BME280;43810;50.860;19.226;2022-12-18T00:50:21;100110.31;;;-4.15;84.13
58018;BME280;43810;50.860;19.226;2022-12-18T00:52:47;100107.50;;;-4.13;84.61
58018;BME280;43810;50.860;19.226;2022-12-18T00:55:13;100105.34;;;-4.03;84.01
58018;BME280;43810;50.860;19.226;2022-12-18T00:57:39;100120.91;;;-4.03;83.83
58018;BME280;43810;50.860;19.226;2022-12-18T01:00:09;100122.94;;;-3.98;83.94
58018;BME280;43810;50.860;19.226;2022-12-18T01:02:36;100129.72;;;-3.97;83.92
58018;BME280;43810;50.860;19.226;2022-12-18T01:05:01;100134.50;;;-3.94;83.58
58018;BME280;43810;50.860;19.226;2022-12-18T01:07:27;100138.91;;;-3.95;83.81
58018;BME280;43810;50.860;19.226;2022-12-18T01:09:53;100139.91;;;-3.96;83.98
58018;BME280;43810;50.860;19.226;2022-12-18T01:12:19;100145.31;;;-3.91;83.91
58018;BME280;43810;50.860;19.226;2022-12-18T01:14:47;100148.53;;;-3.89;83.58
58018;BME280;43810;50.860;19.226;2022-12-18T01:17:30;100145.31;;;-3.84;83.43
58018;BME280;43810;50.860;19.226;2022-12-18T01:20:05;100148.72;;;-3.84;82.87
58018;BME280;43810;50.860;19.226;2022-12-18T01:22:35;100161.69;;;-3.90;83.39
58018;BME280;43810;50.860;19.226;2022-12-18T01:25:01;100162.06;;;-4.00;83.03
58018;BME280;43810;50.860;19.226;2022-12-18T01:27:27;100158.06;;;-4.09;83.38
58018;BME280;43810;50.860;19.226;2022-12-18T01:29:53;100160.41;;;-4.14;83.28
58018;BME280;43810;50.860;19.226;2022-12-18T01:32:19;100162.38;;;-4.23;83.57
58018;BME280;43810;50.860;19.226;2022-12-18T01:34:44;100157.56;;;-4.26;83.85
58018;BME280;43810;50.860;19.226;2022-12-18T01:37:10;100165.53;;;-4.27;84.24
58018;BME280;43810;50.860;19.226;2022-12-18T01:39:36;100168.00;;;-4.19;83.71
58018;BME280;43810;50.860;19.226;2022-12-18T01:42:11;100175.19;;;-4.15;83.58
58018;BME280;43810;50.860;19.226;2022-12-18T01:44:54;100166.59;;;-4.15;83.36
58018;BME280;43810;50.860;19.226;2022-12-18T01:50:00;100173.75;;;-4.24;83.83
58018;BME280;43810;50.860;19.226;2022-12-18T01:52:29;100177.91;;;-4.29;83.88
58018;BME280;43810;50.860;19.226;2022-12-18T01:54:56;100177.53;;;-4.26;83.65
58018;BME280;43810;50.860;19.226;2022-12-18T01:57:23;100167.94;;;-4.26;83.55
58018;BME280;43810;50.860;19.226;2022-12-18T01:59:52;100170.72;;;-4.27;83.48
58018;BME280;43810;50.860;19.226;2022-12-18T02:02:20;100188.91;;;-4.27;83.57
58018;BME280;43810;50.860;19.226;2022-12-18T02:04:46;100192.53;;;-4.22;83.59
58018;BME280;43810;50.860;19.226;2022-12-18T02:10:11;100191.50;;;-4.27;83.33
58018;BME280;43810;50.860;19.226;2022-12-18T02:12:56;100204.25;;;-4.32;83.41
58018;BME280;43810;50.860;19.226;2022-12-18T02:18:02;100198.06;;;-4.31;83.17
58018;BME280;43810;50.860;19.226;2022-12-18T02:26:22;100220.81;;;-4.33;82.91
58018;BME280;43810;50.860;19.226;2022-12-18T02:28:53;100207.56;;;-4.45;82.98
58018;BME280;43810;50.860;19.226;2022-12-18T02:31:26;100224.56;;;-4.42;82.98
58018;BME280;43810;50.860;19.226;2022-12-18T02:33:55;100211.59;;;-4.42;82.92
58018;BME280;43810;50.860;19.226;2022-12-18T02:36:22;100226.13;;;-4.41;83.33
58018;BME280;43810;50.860;19.226;2022-12-18T02:38:49;100215.38;;;-4.38;83.42
58018;BME280;43810;50.860;19.226;2022-12-18T02:41:18;100224.03;;;-4.31;83.11
58018;BME280;43810;50.860;19.226;2022-12-18T02:43:48;100221.81;;;-4.34;83.29
58018;BME280;43810;50.860;19.226;2022-12-18T02:46:45;100235.53;;;-4.40;83.20
58018;BME280;43810;50.860;19.226;2022-12-18T02:49:35;100240.06;;;-4.49;83.25
58018;BME280;43810;50.860;19.226;2022-12-18T02:57:55;100240.94;;;-4.35;83.05
58018;BME280;43810;50.860;19.226;2022-12-18T03:00:33;100255.75;;;-4.29;83.06
58018;BME280;43810;50.860;19.226;2022-12-18T03:05:41;100246.94;;;-4.35;83.09
58018;BME280;43810;50.860;19.226;2022-12-18T03:08:24;100247.69;;;-4.41;83.18
58018;BME280;43810;50.860;19.226;2022-12-18T03:10:57;100244.50;;;-4.43;82.53
58018;BME280;43810;50.860;19.226;2022-12-18T03:13:34;100256.88;;;-4.45;82.90
58018;BME280;43810;50.860;19.226;2022-12-18T03:16:03;100256.28;;;-4.40;82.57
58018;BME280;43810;50.860;19.226;2022-12-18T03:21:06;100268.44;;;-4.41;82.64
58018;BME280;43810;50.860;19.226;2022-12-18T03:23:39;100272.28;;;-4.37;82.74
58018;BME280;43810;50.860;19.226;2022-12-18T03:26:09;100281.84;;;-4.37;82.49
58018;BME280;43810;50.860;19.226;2022-12-18T03:28:39;100279.63;;;-4.40;82.79
58018;BME280;43810;50.860;19.226;2022-12-18T03:31:09;100273.63;;;-4.41;82.58
58018;BME280;43810;50.860;19.226;2022-12-18T03:33:52;100282.00;;;-4.45;82.63
58018;BME280;43810;50.860;19.226;2022-12-18T03:36:18;100286.75;;;-4.49;82.88
58018;BME280;43810;50.860;19.226;2022-12-18T03:38:44;100286.56;;;-4.48;82.95
58018;BME280;43810;50.860;19.226;2022-12-18T03:46:11;100293.78;;;-4.43;83.03
58018;BME280;43810;50.860;19.226;2022-12-18T03:48:44;100293.84;;;-4.36;82.88
58018;BME280;43810;50.860;19.226;2022-12-18T03:51:18;100296.25;;;-4.35;82.85
58018;BME280;43810;50.860;19.226;2022-12-18T03:53:58;100294.28;;;-4.26;81.94
58018;BME280;43810;50.860;19.226;2022-12-18T03:56:28;100294.44;;;-4.34;82.25
58018;BME280;43810;50.860;19.226;2022-12-18T03:58:56;100300.00;;;-4.37;82.27
58018;BME280;43810;50.860;19.226;2022-12-18T04:01:28;100303.97;;;-4.41;82.34
58018;BME280;43810;50.860;19.226;2022-12-18T04:03:59;100308.34;;;-4.42;82.01
58018;BME280;43810;50.860;19.226;2022-12-18T04:06:26;100304.72;;;-4.48;82.05
58018;BME280;43810;50.860;19.226;2022-12-18T04:08:53;100313.38;;;-4.62;82.16
58018;BME280;43810;50.860;19.226;2022-12-18T04:11:19;100316.91;;;-4.69;82.07
58018;BME280;43810;50.860;19.226;2022-12-18T04:13:45;100305.09;;;-4.78;82.30
58018;BME280;43810;50.860;19.226;2022-12-18T04:16:10;100326.19;;;-4.81;82.05
58018;BME280;43810;50.860;19.226;2022-12-18T04:18:36;100322.00;;;-4.82;81.83
58018;BME280;43810;50.860;19.226;2022-12-18T04:21:02;100327.53;;;-4.86;82.08
58018;BME280;43810;50.860;19.226;2022-12-18T04:23:28;100333.34;;;-4.84;82.49
58018;BME280;43810;50.860;19.226;2022-12-18T04:25:54;100332.19;;;-4.81;82.41
58018;BME280;43810;50.860;19.226;2022-12-18T04:28:20;100329.16;;;-4.85;82.22
58018;BME280;43810;50.860;19.226;2022-12-18T04:30:46;100341.13;;;-4.84;82.29
58018;BME280;43810;50.860;19.226;2022-12-18T04:33:13;100339.34;;;-4.83;82.55
58018;BME280;43810;50.860;19.226;2022-12-18T04:35:42;100337.91;;;-4.86;82.80
58018;BME280;43810;50.860;19.226;2022-12-18T04:38:08;100339.50;;;-4.85;82.58
58018;BME280;43810;50.860;19.226;2022-12-18T04:40:34;100343.53;;;-4.82;82.61
58018;BME280;43810;50.860;19.226;2022-12-18T04:43:00;100339.16;;;-4.81;82.37
58018;BME280;43810;50.860;19.226;2022-12-18T04:45:25;100348.34;;;-4.79;82.60
58018;BME280;43810;50.860;19.226;2022-12-18T04:47:51;100357.97;;;-4.73;82.37
58018;BME280;43810;50.860;19.226;2022-12-18T04:50:17;100351.97;;;-4.73;82.33
58018;BME280;43810;50.860;19.226;2022-12-18T04:52:43;100357.16;;;-4.73;82.45
58018;BME280;43810;50.860;19.226;2022-12-18T04:55:09;100364.75;;;-4.72;82.34
58018;BME280;43810;50.860;19.226;2022-12-18T04:57:35;100361.53;;;-4.74;82.36
58018;BME280;43810;50.860;19.226;2022-12-18T05:00:00;100366.00;;;-4.68;82.38
58018;BME280;43810;50.860;19.226;2022-12-18T05:02:26;100371.00;;;-4.66;82.43
58018;BME280;43810;50.860;19.226;2022-12-18T05:04:52;100355.19;;;-4.71;82.49
58018;BME280;43810;50.860;19.226;2022-12-18T05:07:18;100363.59;;;-4.69;82.40
58018;BME280;43810;50.860;19.226;2022-12-18T05:09:44;100359.22;;;-4.69;82.67
58018;BME280;43810;50.860;19.226;2022-12-18T05:12:09;100365.22;;;-4.68;82.59
58018;BME280;43810;50.860;19.226;2022-12-18T05:14:35;100374.41;;;-4.66;82.35
58018;BME280;43810;50.860;19.226;2022-12-18T05:17:01;100371.59;;;-4.64;82.15
58018;BME280;43810;50.860;19.226;2022-12-18T05:19:27;100380.75;;;-4.68;82.40
58018;BME280;43810;50.860;19.226;2022-12-18T05:21:52;100380.94;;;-4.70;82.36
58018;BME280;43810;50.860;19.226;2022-12-18T05:24:18;100381.94;;;-4.71;82.20
58018;BME280;43810;50.860;19.226;2022-12-18T05:26:44;100385.31;;;-4.70;82.21
58018;BME280;43810;50.860;19.226;2022-12-18T05:29:09;100385.47;;;-4.78;81.93
58018;BME280;43810;50.860;19.226;2022-12-18T05:31:38;100388.28;;;-4.95;82.45
58018;BME280;43810;50.860;19.226;2022-12-18T05:34:04;100391.88;;;-4.96;82.25
58018;BME280;43810;50.860;19.226;2022-12-18T05:36:30;100390.88;;;-4.95;82.63
58018;BME280;43810;50.860;19.226;2022-12-18T05:38:56;100399.19;;;-4.99;82.41
58018;BME280;43810;50.860;19.226;2022-12-18T05:41:22;100397.69;;;-4.94;82.13
58018;BME280;43810;50.860;19.226;2022-12-18T05:43:48;100412.78;;;-4.97;82.52
58018;BME280;43810;50.860;19.226;2022-12-18T05:46:16;100408.84;;;-4.93;82.41
58018;BME280;43810;50.860;19.226;2022-12-18T05:48:43;100415.66;;;-4.92;82.41
58018;BME280;43810;50.860;19.226;2022-12-18T05:51:15;100418.28;;;-4.86;82.32
58018;BME280;43810;50.860;19.226;2022-12-18T05:53:41;100419.69;;;-4.83;81.75
58018;BME280;43810;50.860;19.226;2022-12-18T05:56:12;100425.88;;;-4.84;81.89
58018;BME280;43810;50.860;19.226;2022-12-18T05:58:38;100420.84;;;-4.86;82.29
58018;BME280;43810;50.860;19.226;2022-12-18T06:01:16;100431.31;;;-4.79;82.12
58018;BME280;43810;50.860;19.226;2022-12-18T06:03:42;100439.72;;;-4.77;81.90
58018;BME280;43810;50.860;19.226;2022-12-18T06:06:20;100434.09;;;-4.80;81.97
58018;BME280;43810;50.860;19.226;2022-12-18T06:08:47;100440.88;;;-4.79;81.82
58018;BME280;43810;50.860;19.226;2022-12-18T06:11:17;100439.44;;;-4.82;81.90
58018;BME280;43810;50.860;19.226;2022-12-18T06:13:43;100440.63;;;-4.85;82.00
58018;BME280;43810;50.860;19.226;2022-12-18T06:16:09;100445.63;;;-4.83;81.94
58018;BME280;43810;50.860;19.226;2022-12-18T06:18:35;100449.56;;;-4.87;82.06
58018;BME280;43810;50.860;19.226;2022-12-18T06:21:01;100460.38;;;-4.84;82.36
58018;BME280;43810;50.860;19.226;2022-12-18T06:23:27;100455.63;;;-4.80;82.03
58018;BME280;43810;50.860;19.226;2022-12-18T06:25:53;100458.22;;;-4.80;81.94
58018;BME280;43810;50.860;19.226;2022-12-18T06:28:19;100458.22;;;-4.80;82.28
58018;BME280;43810;50.860;19.226;2022-12-18T06:30:46;100468.66;;;-4.73;81.90
58018;BME280;43810;50.860;19.226;2022-12-18T06:33:14;100464.84;;;-4.77;82.21
58018;BME280;43810;50.860;19.226;2022-12-18T06:35:40;100473.16;;;-4.82;82.52
58018;BME280;43810;50.860;19.226;2022-12-18T06:38:06;100475.00;;;-4.76;82.53
58018;BME280;43810;50.860;19.226;2022-12-18T06:40:32;100485.19;;;-4.74;81.96
58018;BME280;43810;50.860;19.226;2022-12-18T06:42:59;100481.81;;;-4.75;82.51
58018;BME280;43810;50.860;19.226;2022-12-18T06:45:25;100489.84;;;-4.70;81.86
58018;BME280;43810;50.860;19.226;2022-12-18T06:47:51;100494.31;;;-4.64;81.25
58018;BME280;43810;50.860;19.226;2022-12-18T06:50:17;100502.88;;;-4.63;81.09
58018;BME280;43810;50.860;19.226;2022-12-18T06:52:43;100510.66;;;-4.63;80.88
58018;BME280;43810;50.860;19.226;2022-12-18T06:55:10;100525.41;;;-4.64;81.03
58018;BME280;43810;50.860;19.226;2022-12-18T06:57:37;100522.22;;;-4.66;81.28
58018;BME280;43810;50.860;19.226;2022-12-18T07:00:04;100524.44;;;-4.63;80.87
58018;BME280;43810;50.860;19.226;2022-12-18T07:02:31;100518.03;;;-4.67;80.89
58018;BME280;43810;50.860;19.226;2022-12-18T07:04:57;100525.59;;;-4.65;81.04
58018;BME280;43810;50.860;19.226;2022-12-18T07:07:22;100534.81;;;-4.63;80.93
58018;BME280;43810;50.860;19.226;2022-12-18T07:09:52;100525.06;;;-4.61;80.63
58018;BME280;43810;50.860;19.226;2022-12-18T07:12:18;100534.47;;;-4.60;80.69
58018;BME280;43810;50.860;19.226;2022-12-18T07:14:44;100527.03;;;-4.63;80.79
58018;BME280;43810;50.860;19.226;2022-12-18T07:17:10;100542.41;;;-4.61;80.50
58018;BME280;43810;50.860;19.226;2022-12-18T07:19:40;100548.41;;;-4.61;80.88
58018;BME280;43810;50.860;19.226;2022-12-18T07:22:11;100547.59;;;-4.61;80.94
58018;BME280;43810;50.860;19.226;2022-12-18T07:24:37;100549.47;;;-4.55;80.52
58018;BME280;43810;50.860;19.226;2022-12-18T07:27:02;100553.06;;;-4.56;80.47
58018;BME280;43810;50.860;19.226;2022-12-18T07:29:28;100556.53;;;-4.49;80.38
58018;BME280;43810;50.860;19.226;2022-12-18T07:31:54;100570.19;;;-4.40;79.90
58018;BME280;43810;50.860;19.226;2022-12-18T07:34:20;100558.75;;;-4.46;79.88
58018;BME280;43810;50.860;19.226;2022-12-18T07:36:45;100568.78;;;-4.43;79.65
58018;BME280;43810;50.860;19.226;2022-12-18T07:39:11;100564.75;;;-4.45;79.68
58018;BME280;43810;50.860;19.226;2022-12-18T07:41:37;100565.47;;;-4.52;79.63
58018;BME280;43810;50.860;19.226;2022-12-18T07:44:03;100560.28;;;-4.52;80.29
58018;BME280;43810;50.860;19.226;2022-12-18T07:46:29;100572.09;;;-4.49;80.28
58018;BME280;43810;50.860;19.226;2022-12-18T07:48:55;100571.97;;;-4.41;79.70
58018;BME280;43810;50.860;19.226;2022-12-18T07:51:20;100571.72;;;-4.46;79.49
58018;BME280;43810;50.860;19.226;2022-12-18T07:53:47;100572.91;;;-4.49;79.80
58018;BME280;43810;50.860;19.226;2022-12-18T07:56:13;100565.56;;;-4.45;79.93
58018;BME280;43810;50.860;19.226;2022-12-18T07:58:39;100575.47;;;-4.34;80.67
58018;BME280;43810;50.860;19.226;2022-12-18T08:01:10;100563.50;;;-4.14;79.47
58018;BME280;43810;50.860;19.226;2022-12-18T08:03:37;100569.38;;;-4.05;78.78
58018;BME280;43810;50.860;19.226;2022-12-18T08:06:05;100571.56;;;-4.08;78.50
58018;BME280;43810;50.860;19.226;2022-12-18T08:08:32;100582.47;;;-4.13;79.07
58018;BME280;43810;50.860;19.226;2022-12-18T08:10:58;100569.25;;;-4.18;78.91
58018;BME280;43810;50.860;19.226;2022-12-18T08:13:25;100569.25;;;-4.18;78.84
58018;BME280;43810;50.860;19.226;2022-12-18T08:16:05;100576.66;;;-4.15;79.12
58018;BME280;43810;50.860;19.226;2022-12-18T08:18:35;100584.72;;;-4.10;78.82
58018;BME280;43810;50.860;19.226;2022-12-18T08:21:18;100575.94;;;-4.09;78.38
58018;BME280;43810;50.860;19.226;2022-12-18T08:23:46;100586.06;;;-4.14;77.96
58018;BME280;43810;50.860;19.226;2022-12-18T08:26:12;100583.41;;;-4.21;78.37
58018;BME280;43810;50.860;19.226;2022-12-18T08:28:39;100579.44;;;-4.17;78.62
58018;BME280;43810;50.860;19.226;2022-12-18T08:31:05;100577.91;;;-4.11;78.83
58018;BME280;43810;50.860;19.226;2022-12-18T08:33:31;100582.63;;;-4.00;78.65
58018;BME280;43810;50.860;19.226;2022-12-18T08:36:01;100591.28;;;-3.93;77.83
58018;BME280;43810;50.860;19.226;2022-12-18T08:38:28;100600.84;;;-3.93;78.10
58018;BME280;43810;50.860;19.226;2022-12-18T08:41:08;100593.94;;;-3.86;77.98
58018;BME280;43810;50.860;19.226;2022-12-18T08:43:35;100605.63;;;-3.76;78.05
58018;BME280;43810;50.860;19.226;2022-12-18T08:46:20;100612.94;;;-3.64;76.85
58018;BME280;43810;50.860;19.226;2022-12-18T08:48:46;100608.47;;;-3.70;76.95
58018;BME280;43810;50.860;19.226;2022-12-18T08:51:13;100617.25;;;-3.71;77.61
58018;BME280;43810;50.860;19.226;2022-12-18T08:53:41;100614.16;;;-3.60;76.95
58018;BME280;43810;50.860;19.226;2022-12-18T08:56:07;100614.78;;;-3.58;76.97
58018;BME280;43810;50.860;19.226;2022-12-18T08:58:33;100622.69;;;-3.45;76.56
58018;BME280;43810;50.860;19.226;2022-12-18T09:01:04;100631.91;;;-3.43;75.92
58018;BME280;43810;50.860;19.226;2022-12-18T09:03:30;100633.53;;;-3.42;75.72
58018;BME280;43810;50.860;19.226;2022-12-18T09:05:56;100627.03;;;-3.52;75.99
58018;BME280;43810;50.860;19.226;2022-12-18T09:08:22;100639.63;;;-3.49;76.29
58018;BME280;43810;50.860;19.226;2022-12-18T09:10:49;100649.75;;;-3.40;75.77
58018;BME280;43810;50.860;19.226;2022-12-18T09:13:16;100643.59;;;-3.32;76.00
58018;BME280;43810;50.860;19.226;2022-12-18T09:15:44;100655.25;;;-3.28;75.83
58018;BME280;43810;50.860;19.226;2022-12-18T09:18:11;100652.94;;;-3.16;75.36
58018;BME280;43810;50.860;19.226;2022-12-18T09:20:37;100642.53;;;-3.16;74.91
58018;BME280;43810;50.860;19.226;2022-12-18T09:23:04;100645.69;;;-3.21;74.73
58018;BME280;43810;50.860;19.226;2022-12-18T09:25:30;100640.44;;;-3.27;74.74
58018;BME280;43810;50.860;19.226;2022-12-18T09:28:09;100646.81;;;-3.30;74.59
58018;BME280;43810;50.860;19.226;2022-12-18T09:30:41;100649.59;;;-3.31;75.36
58018;BME280;43810;50.860;19.226;2022-12-18T09:33:07;100644.03;;;-3.28;75.16
58018;BME280;43810;50.860;19.226;2022-12-18T09:35:36;100650.25;;;-3.23;75.73
58018;BME280;43810;50.860;19.226;2022-12-18T09:38:05;100648.03;;;-3.05;76.11
58018;BME280;43810;50.860;19.226;2022-12-18T09:40:42;100646.97;;;-2.82;75.50
58018;BME280;43810;50.860;19.226;2022-12-18T09:43:17;100652.25;;;-2.69;73.89
58018;BME280;43810;50.860;19.226;2022-12-18T09:45:47;100649.44;;;-2.74;72.97
58018;BME280;43810;50.860;19.226;2022-12-18T09:48:19;100650.56;;;-2.83;73.85
58018;BME280;43810;50.860;19.226;2022-12-18T09:50:48;100654.78;;;-2.82;73.82
58018;BME280;43810;50.860;19.226;2022-12-18T09:53:20;100651.75;;;-2.86;74.45
58018;BME280;43810;50.860;19.226;2022-12-18T09:55:47;100642.44;;;-2.74;74.96
58018;BME280;43810;50.860;19.226;2022-12-18T09:58:26;100650.31;;;-2.60;73.36
58018;BME280;43810;50.860;19.226;2022-12-18T10:00:54;100650.06;;;-2.66;73.53
58018;BME280;43810;50.860;19.226;2022-12-18T10:03:20;100665.75;;;-2.59;73.21
58018;BME280;43810;50.860;19.226;2022-12-18T10:06:11;100661.81;;;-2.76;73.96
58018;BME280;43810;50.860;19.226;2022-12-18T10:08:46;100649.91;;;-2.57;74.24
58018;BME280;43810;50.860;19.226;2022-12-18T10:13:57;100643.66;;;-2.35;73.52
58018;BME280;43810;50.860;19.226;2022-12-18T10:25:22;100633.13;;;-2.07;71.29
58018;BME280;43810;50.860;19.226;2022-12-18T10:27:52;100635.16;;;-1.96;70.64
58018;BME280;43810;50.860;19.226;2022-12-18T10:30:22;100623.16;;;-1.84;70.41
58018;BME280;43810;50.860;19.226;2022-12-18T10:32:48;100626.38;;;-1.82;70.74
58018;BME280;43810;50.860;19.226;2022-12-18T10:35:20;100629.41;;;-1.72;69.83
58018;BME280;43810;50.860;19.226;2022-12-18T10:38:07;100623.63;;;-1.67;69.63
58018;BME280;43810;50.860;19.226;2022-12-18T10:43:23;100630.38;;;-1.86;69.21
58018;BME280;43810;50.860;19.226;2022-12-18T10:46:19;100614.13;;;-1.88;70.00
58018;BME280;43810;50.860;19.226;2022-12-18T10:48:53;100625.34;;;-2.01;69.55
58018;BME280;43810;50.860;19.226;2022-12-18T10:54:05;100612.66;;;-2.23;69.52
58018;BME280;43810;50.860;19.226;2022-12-18T10:56:33;100613.41;;;-2.36;70.13
58018;BME280;43810;50.860;19.226;2022-12-18T10:59:08;100612.34;;;-2.48;71.30
58018;BME280;43810;50.860;19.226;2022-12-18T11:01:54;100606.06;;;-2.60;71.91
58018;BME280;43810;50.860;19.226;2022-12-18T11:04:32;100618.94;;;-2.46;72.08
58018;BME280;43810;50.860;19.226;2022-12-18T11:06:59;100612.84;;;-2.25;70.68
58018;BME280;43810;50.860;19.226;2022-12-18T11:09:30;100616.66;;;-2.21;71.25
58018;BME280;43810;50.860;19.226;2022-12-18T11:12:00;100620.06;;;-2.20;70.15
58018;BME280;43810;50.860;19.226;2022-12-18T11:14:28;100623.44;;;-2.26;70.22
58018;BME280;43810;50.860;19.226;2022-12-18T11:17:21;100621.03;;;-2.21;70.30
58018;BME280;43810;50.860;19.226;2022-12-18T11:19:58;100620.97;;;-2.41;71.23
58018;BME280;43810;50.860;19.226;2022-12-18T11:22:29;100613.53;;;-2.51;71.34
58018;BME280;43810;50.860;19.226;2022-12-18T11:25:05;100618.81;;;-2.31;71.14
58018;BME280;43810;50.860;19.226;2022-12-18T11:27:33;100621.78;;;-2.34;71.14
58018;BME280;43810;50.860;19.226;2022-12-18T11:30:21;100622.84;;;-2.29;71.52
58018;BME280;43810;50.860;19.226;2022-12-18T11:35:55;100624.22;;;-2.33;70.52
58018;BME280;43810;50.860;19.226;2022-12-18T11:38:35;100617.00;;;-2.37;70.65
58018;BME280;43810;50.860;19.226;2022-12-18T11:44:01;100624.72;;;-2.03;69.76
58018;BME280;43810;50.860;19.226;2022-12-18T11:46:46;100618.34;;;-1.87;69.31
58018;BME280;43810;50.860;19.226;2022-12-18T11:49:22;100611.38;;;-1.80;68.85
58018;BME280;43810;50.860;19.226;2022-12-18T11:52:35;100616.41;;;-1.52;69.24
58018;BME280;43810;50.860;19.226;2022-12-18T11:55:11;100616.63;;;-1.47;68.26
58018;BME280;43810;50.860;19.226;2022-12-18T12:00:16;100613.78;;;-1.52;68.36
58018;BME280;43810;50.860;19.226;2022-12-18T12:16:11;100639.03;;;-1.79;68.34
58018;BME280;43810;50.860;19.226;2022-12-18T12:21:42;100638.84;;;-1.71;69.06
58018;BME280;43810;50.860;19.226;2022-12-18T12:38:11;100660.81;;;-2.75;71.07
58018;BME280;43810;50.860;19.226;2022-12-18T12:41:09;100666.59;;;-2.45;71.52
58018;BME280;43810;50.860;19.226;2022-12-18T12:43:58;100670.06;;;-1.84;70.94
58018;BME280;43810;50.860;19.226;2022-12-18T12:46:26;100660.94;;;-1.47;67.72
58018;BME280;43810;50.860;19.226;2022-12-18T12:48:55;100649.88;;;-1.69;68.18
58018;BME280;43810;50.860;19.226;2022-12-18T12:51:25;100648.78;;;-1.94;68.97
58018;BME280;43810;50.860;19.226;2022-12-18T12:53:53;100655.38;;;-2.05;68.61
58018;BME280;43810;50.860;19.226;2022-12-18T12:56:21;100655.56;;;-2.13;68.52
58018;BME280;43810;50.860;19.226;2022-12-18T13:02:10;100656.94;;;-2.58;70.28
58018;BME280;43810;50.860;19.226;2022-12-18T13:04:58;100658.38;;;-2.83;71.33
58018;BME280;43810;50.860;19.226;2022-12-18T13:10:22;100664.19;;;-3.09;72.14
58018;BME280;43810;50.860;19.226;2022-12-18T13:20:44;100686.09;;;-3.61;73.93
58018;BME280;43810;50.860;19.226;2022-12-18T13:23:37;100678.34;;;-3.76;74.10
58018;BME280;43810;50.860;19.226;2022-12-18T13:28:52;100685.66;;;-4.00;75.32
58018;BME280;43810;50.860;19.226;2022-12-18T13:36:50;100677.63;;;-4.50;77.41
58018;BME280;43810;50.860;19.226;2022-12-18T13:41:46;100687.75;;;-4.69;77.29
58018;BME280;43810;50.860;19.226;2022-12-18T13:46:50;100701.78;;;-4.93;77.62
58018;BME280;43810;50.860;19.226;2022-12-18T13:52:16;100695.72;;;-5.23;78.88
58018;BME280;43810;50.860;19.226;2022-12-18T13:54:45;100695.47;;;-5.36;78.68
58018;BME280;43810;50.860;19.226;2022-12-18T13:57:28;100694.59;;;-5.51;78.31
58018;BME280;43810;50.860;19.226;2022-12-18T13:59:55;100700.81;;;-5.61;78.25
58018;BME280;43810;50.860;19.226;2022-12-18T14:02:26;100700.41;;;-5.72;78.64
58018;BME280;43810;50.860;19.226;2022-12-18T14:04:53;100710.34;;;-5.84;79.10
58018;BME280;43810;50.860;19.226;2022-12-18T14:07:22;100696.81;;;-6.02;79.68
58018;BME280;43810;50.860;19.226;2022-12-18T14:09:52;100701.91;;;-6.25;79.73
58018;BME280;43810;50.860;19.226;2022-12-18T14:12:24;100708.78;;;-6.40;79.72
58018;BME280;43810;50.860;19.226;2022-12-18T14:15:31;100705.25;;;-6.55;79.99
58018;BME280;43810;50.860;19.226;2022-12-18T14:18:02;100703.66;;;-6.73;79.73
58018;BME280;43810;50.860;19.226;2022-12-18T14:20:34;100700.78;;;-6.94;79.21
58018;BME280;43810;50.860;19.226;2022-12-18T14:23:00;100695.81;;;-7.12;79.45
58018;BME280;43810;50.860;19.226;2022-12-18T14:25:30;100700.19;;;-7.36;80.07
58018;BME280;43810;50.860;19.226;2022-12-18T14:30:45;100700.44;;;-7.72;81.04
58018;BME280;43810;50.860;19.226;2022-12-18T14:33:14;100695.22;;;-7.88;81.25
58018;BME280;43810;50.860;19.226;2022-12-18T14:35:42;100698.16;;;-7.91;81.76
58018;BME280;43810;50.860;19.226;2022-12-18T14:38:35;100690.34;;;-7.99;82.17
58018;BME280;43810;50.860;19.226;2022-12-18T14:41:06;100688.06;;;-8.10;82.29
58018;BME280;43810;50.860;19.226;2022-12-18T14:43:38;100683.03;;;-8.28;82.23
58018;BME280;43810;50.860;19.226;2022-12-18T14:46:05;100682.03;;;-8.35;82.45
58018;BME280;43810;50.860;19.226;2022-12-18T14:48:40;100691.84;;;-8.39;82.42
58018;BME280;43810;50.860;19.226;2022-12-18T14:51:15;100701.72;;;-8.60;81.99
58018;BME280;43810;50.860;19.226;2022-12-18T14:53:45;100705.84;;;-8.67;82.86